sensor_id;sensor_type;location;lat;lon;timestamp;P1;durP1;ratioP1;P2;durP2;ratioP2
59016;SDS011;44800;55.600;38.134;2023-02-13T00:01:07;2.67;;;1.90;;
59016;SDS011;44800;55.600;38.134;2023-02-13T00:03:35;4.13;;;2.35;;
59016;SDS011;44800;55.600;38.134;2023-02-13T00:06:05;3.42;;;2.45;;
59016;SDS011;44800;55.600;38.134;2023-02-13T00:08:34;3.53;;;1.95;;
59016;SDS011;44800;55.600;38.134;2023-02-13T00:11:03;5.30;;;1.95;;
59016;SDS011;44800;55.600;38.134;2023-02-13T00:13:32;6.03;;;2.85;;
59016;SDS011;44800;55.600;38.134;2023-02-13T00:16:02;4.13;;;2.25;;
59016;SDS011;44800;55.600;38.134;2023-02-13T00:18:32;4.63;;;2.38;;
59016;SDS011;44800;55.600;38.134;2023-02-13T00:21:02;4.57;;;2.53;;
59016;SDS011;44800;55.600;38.134;2023-02-13T00:23:33;4.13;;;2.47;;
59016;SDS011;44800;55.600;38.134;2023-02-13T00:26:04;3.08;;;1.88;;
59016;SDS011;44800;55.600;38.134;2023-02-13T00:28:33;2.70;;;1.48;;
59016;SDS011;44800;55.600;38.134;2023-02-13T00:31:03;4.82;;;2.25;;
59016;SDS011;44800;55.600;38.134;2023-02-13T00:33:32;4.93;;;2.58;;
59016;SDS011;44800;55.600;38.134;2023-02-13T00:36:02;5.47;;;3.58;;
59016;SDS011;44800;55.600;38.134;2023-02-13T00:38:33;7.75;;;3.10;;
59016;SDS011;44800;55.600;38.134;2023-02-13T00:41:02;7.10;;;2.80;;
59016;SDS011;44800;55.600;38.134;2023-02-13T00:43:32;9.77;;;3.38;;
59016;SDS011;44800;55.600;38.134;2023-02-13T00:46:01;5.72;;;2.42;;
59016;SDS011;44800;55.600;38.134;2023-02-13T00:48:30;8.45;;;3.17;;
59016;SDS011;44800;55.600;38.134;2023-02-13T00:51:00;4.15;;;2.35;;
59016;SDS011;44800;55.600;38.134;2023-02-13T00:53:30;6.13;;;2.60;;
59016;SDS011;44800;55.600;38.134;2023-02-13T00:55:58;10.70;;;3.85;;
59016;SDS011;44800;55.600;38.134;2023-02-13T00:58:27;7.72;;;3.25;;
59016;SDS011;44800;55.600;38.134;2023-02-13T01:00:55;4.15;;;2.28;;
59016;SDS011;44800;55.600;38.134;2023-02-13T01:03:24;3.40;;;2.38;;
59016;SDS011;44800;55.600;38.134;2023-02-13T01:05:54;4.35;;;2.22;;
59016;SDS011;44800;55.600;38.134;2023-02-13T01:08:22;5.38;;;2.72;;
59016;SDS011;44800;55.600;38.134;2023-02-13T01:10:55;3.83;;;2.08;;
59016;SDS011;44800;55.600;38.134;2023-02-13T01:13:24;6.50;;;2.10;;
59016;SDS011;44800;55.600;38.134;2023-02-13T01:15:54;5.03;;;2.53;;
59016;SDS011;44800;55.600;38.134;2023-02-13T01:18:22;5.25;;;2.60;;
59016;SDS011;44800;55.600;38.134;2023-02-13T01:20:54;5.35;;;2.30;;
59016;SDS011;44800;55.600;38.134;2023-02-13T01:23:25;6.05;;;3.03;;
59016;SDS011;44800;55.600;38.134;2023-02-13T01:25:55;4.05;;;2.10;;
59016;SDS011;44800;55.600;38.134;2023-02-13T01:28:23;4.13;;;2.08;;
59016;SDS011;44800;55.600;38.134;2023-02-13T01:30:52;5.50;;;2.85;;
59016;SDS011;44800;55.600;38.134;2023-02-13T01:33:22;4.30;;;1.77;;
59016;SDS011;44800;55.600;38.134;2023-02-13T01:35:50;6.97;;;2.80;;
59016;SDS011;44800;55.600;38.134;2023-02-13T01:38:19;5.00;;;2.40;;
59016;SDS011;44800;55.600;38.134;2023-02-13T01:40:48;5.55;;;2.95;;
59016;SDS011;44800;55.600;38.134;2023-02-13T01:43:19;3.83;;;2.47;;
59016;SDS011;44800;55.600;38.134;2023-02-13T01:45:49;4.85;;;1.77;;
59016;SDS011;44800;55.600;38.134;2023-02-13T01:48:22;3.08;;;2.25;;
59016;SDS011;44800;55.600;38.134;2023-02-13T01:50:52;4.43;;;2.17;;
59016;SDS011;44800;55.600;38.134;2023-02-13T01:53:23;4.50;;;2.40;;
59016;SDS011;44800;55.600;38.134;2023-02-13T01:55:54;4.53;;;2.20;;
59016;SDS011;44800;55.600;38.134;2023-02-13T01:58:26;5.43;;;2.42;;
59016;SDS011;44800;55.600;38.134;2023-02-13T02:00:56;4.78;;;2.15;;
59016;SDS011;44800;55.600;38.134;2023-02-13T02:03:26;3.72;;;1.73;;
59016;SDS011;44800;55.600;38.134;2023-02-13T02:05:56;6.13;;;2.38;;
59016;SDS011;44800;55.600;38.134;2023-02-13T02:08:25;3.70;;;2.20;;
59016;SDS011;44800;55.600;38.134;2023-02-13T02:10:54;4.80;;;2.50;;
59016;SDS011;44800;55.600;38.134;2023-02-13T02:13:25;7.47;;;2.95;;
59016;SDS011;44800;55.600;38.134;2023-02-13T02:15:54;6.82;;;2.92;;
59016;SDS011;44800;55.600;38.134;2023-02-13T02:18:23;3.70;;;2.00;;
59016;SDS011;44800;55.600;38.134;2023-02-13T02:21:04;7.22;;;3.65;;
59016;SDS011;44800;55.600;38.134;2023-02-13T02:26:58;4.20;;;2.30;;
59016;SDS011;44800;55.600;38.134;2023-02-13T02:33:11;3.00;;;2.10;;
59016;SDS011;44800;55.600;38.134;2023-02-13T02:35:45;2.70;;;1.67;;
59016;SDS011;44800;55.600;38.134;2023-02-13T02:38:24;6.38;;;2.45;;
59016;SDS011;44800;55.600;38.134;2023-02-13T02:40:59;5.00;;;2.97;;
59016;SDS011;44800;55.600;38.134;2023-02-13T02:43:38;3.40;;;1.83;;
59016;SDS011;44800;55.600;38.134;2023-02-13T02:46:15;7.72;;;3.30;;
59016;SDS011;44800;55.600;38.134;2023-02-13T02:48:52;5.43;;;2.25;;
59016;SDS011;44800;55.600;38.134;2023-02-13T02:51:45;7.68;;;3.00;;
59016;SDS011;44800;55.600;38.134;2023-02-13T02:54:19;3.63;;;1.88;;
59016;SDS011;44800;55.600;38.134;2023-02-13T02:57:09;7.82;;;3.22;;
59016;SDS011;44800;55.600;38.134;2023-02-13T02:59:40;5.20;;;1.92;;
59016;SDS011;44800;55.600;38.134;2023-02-13T03:02:29;6.20;;;2.95;;
59016;SDS011;44800;55.600;38.134;2023-02-13T03:05:19;4.53;;;1.67;;
59016;SDS011;44800;55.600;38.134;2023-02-13T03:08:06;3.55;;;2.63;;
59016;SDS011;44800;55.600;38.134;2023-02-13T03:10:35;4.15;;;2.00;;
59016;SDS011;44800;55.600;38.134;2023-02-13T03:13:30;4.78;;;1.92;;
59016;SDS011;44800;55.600;38.134;2023-02-13T03:16:04;2.25;;;2.00;;
59016;SDS011;44800;55.600;38.134;2023-02-13T03:18:51;2.10;;;1.35;;
59016;SDS011;44800;55.600;38.134;2023-02-13T03:21:42;5.93;;;2.33;;
59016;SDS011;44800;55.600;38.134;2023-02-13T03:27:04;5.63;;;2.20;;
59016;SDS011;44800;55.600;38.134;2023-02-13T03:29:38;2.90;;;1.50;;
59016;SDS011;44800;55.600;38.134;2023-02-13T03:32:31;0.20;;;0.20;;
59016;SDS011;44800;55.600;38.134;2023-02-13T03:35:07;3.80;;;2.17;;
59016;SDS011;44800;55.600;38.134;2023-02-13T03:38:04;1.35;;;1.25;;
59016;SDS011;44800;55.600;38.134;2023-02-13T03:40:41;5.50;;;1.63;;
59016;SDS011;44800;55.600;38.134;2023-02-13T03:43:31;2.28;;;1.30;;
59016;SDS011;44800;55.600;38.134;2023-02-13T03:46:04;0.93;;;0.73;;
59016;SDS011;44800;55.600;38.134;2023-02-13T03:48:34;2.65;;;1.88;;
59016;SDS011;44800;55.600;38.134;2023-02-13T03:51:23;2.40;;;1.48;;
59016;SDS011;44800;55.600;38.134;2023-02-13T03:53:56;0.43;;;0.43;;
59016;SDS011;44800;55.600;38.134;2023-02-13T03:56:26;4.57;;;2.28;;
59016;SDS011;44800;55.600;38.134;2023-02-13T03:59:16;3.08;;;1.63;;
59016;SDS011;44800;55.600;38.134;2023-02-13T04:01:49;1.10;;;0.70;;
59016;SDS011;44800;55.600;38.134;2023-02-13T04:04:22;1.27;;;1.10;;
59016;SDS011;44800;55.600;38.134;2023-02-13T04:06:54;4.15;;;2.03;;
59016;SDS011;44800;55.600;38.134;2023-02-13T04:09:28;3.90;;;1.58;;
59016;SDS011;44800;55.600;38.134;2023-02-13T04:11:57;3.72;;;1.00;;
59016;SDS011;44800;55.600;38.134;2023-02-13T04:14:33;3.47;;;1.75;;
59016;SDS011;44800;55.600;38.134;2023-02-13T04:17:06;2.55;;;1.20;;
59016;SDS011;44800;55.600;38.134;2023-02-13T04:19:36;2.78;;;1.35;;
59016;SDS011;44800;55.600;38.134;2023-02-13T04:22:05;6.53;;;1.60;;
59016;SDS011;44800;55.600;38.134;2023-02-13T04:24:34;3.00;;;1.50;;
59016;SDS011;44800;55.600;38.134;2023-02-13T04:27:03;5.03;;;1.85;;
59016;SDS011;44800;55.600;38.134;2023-02-13T04:29:31;2.78;;;1.83;;
59016;SDS011;44800;55.600;38.134;2023-02-13T04:31:59;8.30;;;1.65;;
59016;SDS011;44800;55.600;38.134;2023-02-13T04:34:28;6.07;;;2.08;;
59016;SDS011;44800;55.600;38.134;2023-02-13T04:36:56;3.45;;;1.50;;
59016;SDS011;44800;55.600;38.134;2023-02-13T04:39:25;1.58;;;1.35;;
59016;SDS011;44800;55.600;38.134;2023-02-13T04:41:54;1.52;;;1.05;;
59016;SDS011;44800;55.600;38.134;2023-02-13T04:44:23;1.65;;;1.30;;
59016;SDS011;44800;55.600;38.134;2023-02-13T04:46:51;3.42;;;1.65;;
59016;SDS011;44800;55.600;38.134;2023-02-13T04:49:19;5.72;;;1.50;;
59016;SDS011;44800;55.600;38.134;2023-02-13T04:51:48;4.65;;;1.73;;
59016;SDS011;44800;55.600;38.134;2023-02-13T04:54:16;3.75;;;2.03;;
59016;SDS011;44800;55.600;38.134;2023-02-13T04:56:45;3.05;;;1.65;;
59016;SDS011;44800;55.600;38.134;2023-02-13T04:59:14;4.38;;;1.83;;
59016;SDS011;44800;55.600;38.134;2023-02-13T05:01:43;2.13;;;0.57;;
59016;SDS011;44800;55.600;38.134;2023-02-13T05:04:11;2.00;;;1.58;;
59016;SDS011;44800;55.600;38.134;2023-02-13T05:06:41;1.95;;;1.15;;
59016;SDS011;44800;55.600;38.134;2023-02-13T05:09:10;2.78;;;1.40;;
59016;SDS011;44800;55.600;38.134;2023-02-13T05:11:38;5.07;;;1.73;;
59016;SDS011;44800;55.600;38.134;2023-02-13T05:14:06;3.72;;;1.73;;
59016;SDS011;44800;55.600;38.134;2023-02-13T05:16:37;5.15;;;1.70;;
59016;SDS011;44800;55.600;38.134;2023-02-13T05:19:06;3.33;;;1.60;;
59016;SDS011;44800;55.600;38.134;2023-02-13T05:21:34;3.60;;;1.65;;
59016;SDS011;44800;55.600;38.134;2023-02-13T05:24:20;3.03;;;1.48;;
59016;SDS011;44800;55.600;38.134;2023-02-13T05:26:49;4.70;;;2.58;;
59016;SDS011;44800;55.600;38.134;2023-02-13T05:29:17;5.43;;;2.28;;
59016;SDS011;44800;55.600;38.134;2023-02-13T05:31:47;4.65;;;2.40;;
59016;SDS011;44800;55.600;38.134;2023-02-13T05:34:16;3.47;;;1.27;;
59016;SDS011;44800;55.600;38.134;2023-02-13T05:36:45;5.90;;;1.88;;
59016;SDS011;44800;55.600;38.134;2023-02-13T05:39:13;2.63;;;1.30;;
59016;SDS011;44800;55.600;38.134;2023-02-13T05:41:42;2.55;;;1.38;;
59016;SDS011;44800;55.600;38.134;2023-02-13T05:44:11;2.67;;;1.70;;
59016;SDS011;44800;55.600;38.134;2023-02-13T05:46:40;2.45;;;1.67;;
59016;SDS011;44800;55.600;38.134;2023-02-13T05:49:12;2.53;;;1.63;;
59016;SDS011;44800;55.600;38.134;2023-02-13T05:51:41;5.95;;;2.33;;
59016;SDS011;44800;55.600;38.134;2023-02-13T05:54:09;3.05;;;2.38;;
59016;SDS011;44800;55.600;38.134;2023-02-13T05:56:38;6.07;;;2.50;;
59016;SDS011;44800;55.600;38.134;2023-02-13T05:59:07;3.80;;;1.35;;
59016;SDS011;44800;55.600;38.134;2023-02-13T06:01:35;2.95;;;1.60;;
59016;SDS011;44800;55.600;38.134;2023-02-13T06:04:04;6.43;;;2.50;;
59016;SDS011;44800;55.600;38.134;2023-02-13T06:06:34;3.38;;;2.10;;
59016;SDS011;44800;55.600;38.134;2023-02-13T06:09:02;3.95;;;2.58;;
59016;SDS011;44800;55.600;38.134;2023-02-13T06:11:30;4.80;;;2.38;;
59016;SDS011;44800;55.600;38.134;2023-02-13T06:13:59;2.20;;;1.20;;
59016;SDS011;44800;55.600;38.134;2023-02-13T06:16:27;2.67;;;1.65;;
59016;SDS011;44800;55.600;38.134;2023-02-13T06:18:56;2.80;;;1.52;;
59016;SDS011;44800;55.600;38.134;2023-02-13T06:21:25;2.83;;;1.60;;
59016;SDS011;44800;55.600;38.134;2023-02-13T06:23:54;3.75;;;2.35;;
59016;SDS011;44800;55.600;38.134;2023-02-13T06:26:23;3.88;;;2.08;;
59016;SDS011;44800;55.600;38.134;2023-02-13T06:28:52;5.45;;;2.72;;
59016;SDS011;44800;55.600;38.134;2023-02-13T06:31:20;5.10;;;2.70;;
59016;SDS011;44800;55.600;38.134;2023-02-13T06:33:49;4.68;;;1.88;;
59016;SDS011;44800;55.600;38.134;2023-02-13T06:36:17;3.10;;;2.30;;
59016;SDS011;44800;55.600;38.134;2023-02-13T06:38:46;4.38;;;2.90;;
59016;SDS011;44800;55.600;38.134;2023-02-13T06:41:15;2.85;;;1.40;;
59016;SDS011;44800;55.600;38.134;2023-02-13T06:43:44;2.03;;;1.65;;
59016;SDS011;44800;55.600;38.134;2023-02-13T06:46:12;6.28;;;2.40;;
59016;SDS011;44800;55.600;38.134;2023-02-13T06:48:41;5.25;;;2.80;;
59016;SDS011;44800;55.600;38.134;2023-02-13T06:51:09;4.95;;;2.13;;
59016;SDS011;44800;55.600;38.134;2023-02-13T06:53:38;3.13;;;1.60;;
59016;SDS011;44800;55.600;38.134;2023-02-13T06:56:06;5.82;;;2.17;;
59016;SDS011;44800;55.600;38.134;2023-02-13T06:58:36;4.97;;;2.17;;
59016;SDS011;44800;55.600;38.134;2023-02-13T07:01:06;6.72;;;2.75;;
59016;SDS011;44800;55.600;38.134;2023-02-13T07:03:35;1.30;;;0.88;;
59016;SDS011;44800;55.600;38.134;2023-02-13T07:06:03;6.68;;;1.92;;
59016;SDS011;44800;55.600;38.134;2023-02-13T07:08:33;3.83;;;2.63;;
59016;SDS011;44800;55.600;38.134;2023-02-13T07:11:01;1.05;;;1.00;;
59016;SDS011;44800;55.600;38.134;2023-02-13T07:13:30;3.85;;;1.88;;
59016;SDS011;44800;55.600;38.134;2023-02-13T07:16:00;1.83;;;1.23;;
59016;SDS011;44800;55.600;38.134;2023-02-13T07:18:29;9.85;;;2.10;;
59016;SDS011;44800;55.600;38.134;2023-02-13T07:20:57;1.35;;;0.90;;
59016;SDS011;44800;55.600;38.134;2023-02-13T07:23:25;3.55;;;1.65;;
59016;SDS011;44800;55.600;38.134;2023-02-13T07:25:54;1.35;;;1.13;;
59016;SDS011;44800;55.600;38.134;2023-02-13T07:28:22;4.85;;;1.83;;
59016;SDS011;44800;55.600;38.134;2023-02-13T07:30:50;1.60;;;0.95;;
59016;SDS011;44800;55.600;38.134;2023-02-13T07:33:23;4.88;;;2.30;;
59016;SDS011;44800;55.600;38.134;2023-02-13T07:35:51;1.85;;;1.25;;
59016;SDS011;44800;55.600;38.134;2023-02-13T07:38:20;3.47;;;1.70;;
59016;SDS011;44800;55.600;38.134;2023-02-13T07:40:48;2.47;;;1.58;;
59016;SDS011;44800;55.600;38.134;2023-02-13T07:43:16;5.97;;;1.88;;
59016;SDS011;44800;55.600;38.134;2023-02-13T07:45:45;4.13;;;1.33;;
59016;SDS011;44800;55.600;38.134;2023-02-13T07:48:13;3.28;;;1.40;;
59016;SDS011;44800;55.600;38.134;2023-02-13T07:50:43;6.10;;;2.83;;
59016;SDS011;44800;55.600;38.134;2023-02-13T07:53:11;4.45;;;2.50;;
59016;SDS011;44800;55.600;38.134;2023-02-13T07:55:39;2.10;;;1.58;;
59016;SDS011;44800;55.600;38.134;2023-02-13T07:58:08;3.40;;;1.70;;
59016;SDS011;44800;55.600;38.134;2023-02-13T08:00:36;3.92;;;2.25;;
59016;SDS011;44800;55.600;38.134;2023-02-13T08:03:05;3.88;;;1.92;;
59016;SDS011;44800;55.600;38.134;2023-02-13T08:05:34;2.55;;;1.50;;
59016;SDS011;44800;55.600;38.134;2023-02-13T08:08:04;1.05;;;0.93;;
59016;SDS011;44800;55.600;38.134;2023-02-13T08:10:33;4.50;;;1.85;;
59016;SDS011;44800;55.600;38.134;2023-02-13T08:13:19;4.63;;;2.38;;
59016;SDS011;44800;55.600;38.134;2023-02-13T08:15:47;1.70;;;1.00;;
59016;SDS011;44800;55.600;38.134;2023-02-13T08:18:15;6.47;;;1.88;;
59016;SDS011;44800;55.600;38.134;2023-02-13T08:20:45;4.57;;;2.22;;
59016;SDS011;44800;55.600;38.134;2023-02-13T08:23:15;5.82;;;2.35;;
59016;SDS011;44800;55.600;38.134;2023-02-13T08:25:43;7.85;;;1.40;;
59016;SDS011;44800;55.600;38.134;2023-02-13T08:28:13;5.97;;;2.72;;
59016;SDS011;44800;55.600;38.134;2023-02-13T08:30:42;5.55;;;2.85;;
59016;SDS011;44800;55.600;38.134;2023-02-13T08:33:10;2.75;;;1.65;;
59016;SDS011;44800;55.600;38.134;2023-02-13T08:35:39;4.82;;;2.25;;
59016;SDS011;44800;55.600;38.134;2023-02-13T08:38:08;3.53;;;2.20;;
59016;SDS011;44800;55.600;38.134;2023-02-13T08:40:39;2.97;;;1.42;;
59016;SDS011;44800;55.600;38.134;2023-02-13T08:43:07;3.40;;;2.72;;
59016;SDS011;44800;55.600;38.134;2023-02-13T08:45:35;3.92;;;2.08;;
59016;SDS011;44800;55.600;38.134;2023-02-13T08:48:04;4.55;;;1.33;;
59016;SDS011;44800;55.600;38.134;2023-02-13T08:50:33;3.28;;;1.35;;
59016;SDS011;44800;55.600;38.134;2023-02-13T08:53:03;2.92;;;1.63;;
59016;SDS011;44800;55.600;38.134;2023-02-13T08:55:31;3.72;;;2.63;;
59016;SDS011;44800;55.600;38.134;2023-02-13T08:58:01;2.65;;;2.25;;
59016;SDS011;44800;55.600;38.134;2023-02-13T09:00:29;4.07;;;1.73;;
59016;SDS011;44800;55.600;38.134;2023-02-13T09:03:01;2.53;;;1.55;;
59016;SDS011;44800;55.600;38.134;2023-02-13T09:05:31;5.18;;;3.35;;
59016;SDS011;44800;55.600;38.134;2023-02-13T09:07:59;7.35;;;3.33;;
59016;SDS011;44800;55.600;38.134;2023-02-13T09:10:29;1.48;;;1.02;;
59016;SDS011;44800;55.600;38.134;2023-02-13T09:12:59;6.18;;;2.97;;
59016;SDS011;44800;55.600;38.134;2023-02-13T09:15:28;9.90;;;2.80;;
59016;SDS011;44800;55.600;38.134;2023-02-13T09:17:57;2.42;;;1.60;;
59016;SDS011;44800;55.600;38.134;2023-02-13T09:20:25;5.80;;;3.20;;
59016;SDS011;44800;55.600;38.134;2023-02-13T09:22:55;3.15;;;1.77;;
59016;SDS011;44800;55.600;38.134;2023-02-13T09:25:24;8.40;;;3.10;;
59016;SDS011;44800;55.600;38.134;2023-02-13T09:27:52;6.15;;;2.78;;
59016;SDS011;44800;55.600;38.134;2023-02-13T09:30:22;2.78;;;2.15;;
59016;SDS011;44800;55.600;38.134;2023-02-13T09:32:51;5.57;;;3.28;;
59016;SDS011;44800;55.600;38.134;2023-02-13T09:35:20;6.20;;;2.63;;
59016;SDS011;44800;55.600;38.134;2023-02-13T09:37:49;6.63;;;3.50;;
59016;SDS011;44800;55.600;38.134;2023-02-13T09:40:19;2.10;;;1.55;;
59016;SDS011;44800;55.600;38.134;2023-02-13T09:42:49;6.90;;;3.30;;
59016;SDS011;44800;55.600;38.134;2023-02-13T09:45:18;7.53;;;4.18;;
59016;SDS011;44800;55.600;38.134;2023-02-13T09:47:49;6.00;;;3.05;;
59016;SDS011;44800;55.600;38.134;2023-02-13T09:50:18;4.30;;;3.15;;
59016;SDS011;44800;55.600;38.134;2023-02-13T09:52:49;7.85;;;3.70;;
59016;SDS011;44800;55.600;38.134;2023-02-13T09:55:19;4.47;;;3.10;;
59016;SDS011;44800;55.600;38.134;2023-02-13T09:57:52;8.25;;;3.92;;
59016;SDS011;44800;55.600;38.134;2023-02-13T10:00:25;4.65;;;2.95;;
59016;SDS011;44800;55.600;38.134;2023-02-13T10:03:06;6.50;;;3.67;;
59016;SDS011;44800;55.600;38.134;2023-02-13T10:05:44;5.88;;;2.42;;
59016;SDS011;44800;55.600;38.134;2023-02-13T10:08:18;4.05;;;1.70;;
59016;SDS011;44800;55.600;38.134;2023-02-13T10:11:03;9.10;;;4.00;;
59016;SDS011;44800;55.600;38.134;2023-02-13T10:13:44;5.57;;;3.40;;
59016;SDS011;44800;55.600;38.134;2023-02-13T10:16:18;7.15;;;3.30;;
59016;SDS011;44800;55.600;38.134;2023-02-13T10:18:50;7.68;;;4.43;;
59016;SDS011;44800;55.600;38.134;2023-02-13T10:21:21;2.95;;;2.55;;
59016;SDS011;44800;55.600;38.134;2023-02-13T10:23:54;8.43;;;3.95;;
59016;SDS011;44800;55.600;38.134;2023-02-13T10:26:27;5.82;;;2.92;;
59016;SDS011;44800;55.600;38.134;2023-02-13T10:29:11;3.60;;;2.50;;
59016;SDS011;44800;55.600;38.134;2023-02-13T10:32:00;5.72;;;3.00;;
59016;SDS011;44800;55.600;38.134;2023-02-13T10:34:33;5.57;;;3.40;;
59016;SDS011;44800;55.600;38.134;2023-02-13T10:37:07;9.65;;;3.88;;
59016;SDS011;44800;55.600;38.134;2023-02-13T10:39:39;7.05;;;3.10;;
59016;SDS011;44800;55.600;38.134;2023-02-13T10:42:10;4.65;;;3.45;;
59016;SDS011;44800;55.600;38.134;2023-02-13T10:44:47;8.13;;;3.08;;
59016;SDS011;44800;55.600;38.134;2023-02-13T10:47:25;7.20;;;3.40;;
59016;SDS011;44800;55.600;38.134;2023-02-13T10:50:08;8.43;;;3.63;;
59016;SDS011;44800;55.600;38.134;2023-02-13T10:52:45;4.20;;;2.58;;
59016;SDS011;44800;55.600;38.134;2023-02-13T10:55:28;4.18;;;1.80;;
59016;SDS011;44800;55.600;38.134;2023-02-13T10:58:05;4.35;;;2.28;;
59016;SDS011;44800;55.600;38.134;2023-02-13T11:00:37;5.00;;;1.95;;
59016;SDS011;44800;55.600;38.134;2023-02-13T11:03:14;9.27;;;3.83;;
59016;SDS011;44800;55.600;38.134;2023-02-13T11:05:49;9.23;;;3.88;;
59016;SDS011;44800;55.600;38.134;2023-02-13T11:08:20;4.20;;;2.60;;
59016;SDS011;44800;55.600;38.134;2023-02-13T11:10:50;8.30;;;4.20;;
59016;SDS011;44800;55.600;38.134;2023-02-13T11:13:19;6.85;;;4.05;;
59016;SDS011;44800;55.600;38.134;2023-02-13T11:15:56;8.23;;;3.53;;
59016;SDS011;44800;55.600;38.134;2023-02-13T11:18:27;6.93;;;4.57;;
59016;SDS011;44800;55.600;38.134;2023-02-13T11:21:02;6.45;;;4.13;;
59016;SDS011;44800;55.600;38.134;2023-02-13T11:23:41;10.98;;;4.13;;
59016;SDS011;44800;55.600;38.134;2023-02-13T11:26:11;9.90;;;3.95;;
59016;SDS011;44800;55.600;38.134;2023-02-13T11:28:47;7.43;;;3.55;;
59016;SDS011;44800;55.600;38.134;2023-02-13T11:31:20;7.35;;;3.47;;
59016;SDS011;44800;55.600;38.134;2023-02-13T11:33:50;8.75;;;3.90;;
59016;SDS011;44800;55.600;38.134;2023-02-13T11:36:24;5.35;;;3.03;;
59016;SDS011;44800;55.600;38.134;2023-02-13T11:38:58;6.93;;;3.90;;
59016;SDS011;44800;55.600;38.134;2023-02-13T11:41:27;6.78;;;4.15;;
59016;SDS011;44800;55.600;38.134;2023-02-13T11:43:57;7.32;;;4.47;;
59016;SDS011;44800;55.600;38.134;2023-02-13T11:46:41;6.85;;;4.22;;
59016;SDS011;44800;55.600;38.134;2023-02-13T11:49:14;9.30;;;4.35;;
59016;SDS011;44800;55.600;38.134;2023-02-13T11:51:46;6.40;;;4.15;;
59016;SDS011;44800;55.600;38.134;2023-02-13T11:54:27;19.13;;;7.65;;
59016;SDS011;44800;55.600;38.134;2023-02-13T11:56:58;7.40;;;4.28;;
59016;SDS011;44800;55.600;38.134;2023-02-13T11:59:31;11.20;;;4.97;;
59016;SDS011;44800;55.600;38.134;2023-02-13T12:02:14;8.38;;;4.78;;
59016;SDS011;44800;55.600;38.134;2023-02-13T12:04:44;4.93;;;3.47;;
59016;SDS011;44800;55.600;38.134;2023-02-13T12:07:15;6.00;;;3.92;;
59016;SDS011;44800;55.600;38.134;2023-02-13T12:09:46;7.50;;;4.72;;
59016;SDS011;44800;55.600;38.134;2023-02-13T12:12:18;5.95;;;4.18;;
59016;SDS011;44800;55.600;38.134;2023-02-13T12:14:53;5.57;;;3.47;;
59016;SDS011;44800;55.600;38.134;2023-02-13T12:17:23;7.40;;;4.38;;
59016;SDS011;44800;55.600;38.134;2023-02-13T12:19:58;8.23;;;4.72;;
59016;SDS011;44800;55.600;38.134;2023-02-13T12:22:31;7.68;;;4.53;;
59016;SDS011;44800;55.600;38.134;2023-02-13T12:28:05;7.82;;;4.40;;
59016;SDS011;44800;55.600;38.134;2023-02-13T12:30:47;5.97;;;3.90;;
59016;SDS011;44800;55.600;38.134;2023-02-13T12:33:31;6.93;;;4.32;;
59016;SDS011;44800;55.600;38.134;2023-02-13T12:36:18;8.88;;;5.30;;
59016;SDS011;44800;55.600;38.134;2023-02-13T12:38:55;5.65;;;3.72;;
59016;SDS011;44800;55.600;38.134;2023-02-13T12:41:33;9.77;;;4.75;;
59016;SDS011;44800;55.600;38.134;2023-02-13T12:44:12;7.95;;;4.80;;
59016;SDS011;44800;55.600;38.134;2023-02-13T12:46:57;7.13;;;3.67;;
59016;SDS011;44800;55.600;38.134;2023-02-13T12:49:35;7.47;;;4.60;;
59016;SDS011;44800;55.600;38.134;2023-02-13T12:52:29;11.18;;;5.43;;
59016;SDS011;44800;55.600;38.134;2023-02-13T12:55:11;6.40;;;4.35;;
59016;SDS011;44800;55.600;38.134;2023-02-13T12:58:02;6.30;;;4.63;;
59016;SDS011;44800;55.600;38.134;2023-02-13T13:00:48;10.23;;;3.92;;
59016;SDS011;44800;55.600;38.134;2023-02-13T13:03:27;6.13;;;4.03;;
59016;SDS011;44800;55.600;38.134;2023-02-13T13:06:05;10.27;;;6.00;;
59016;SDS011;44800;55.600;38.134;2023-02-13T13:08:56;7.13;;;4.63;;
59016;SDS011;44800;55.600;38.134;2023-02-13T13:11:48;6.28;;;4.22;;
59016;SDS011;44800;55.600;38.134;2023-02-13T13:14:24;6.78;;;4.75;;
59016;SDS011;44800;55.600;38.134;2023-02-13T13:16:57;7.53;;;3.83;;
59016;SDS011;44800;55.600;38.134;2023-02-13T13:19:30;9.25;;;4.75;;
59016;SDS011;44800;55.600;38.134;2023-02-13T13:22:04;6.85;;;3.70;;
59016;SDS011;44800;55.600;38.134;2023-02-13T13:24:40;16.95;;;8.25;;
59016;SDS011;44800;55.600;38.134;2023-02-13T13:27:16;8.68;;;4.82;;
59016;SDS011;44800;55.600;38.134;2023-02-13T13:32:18;5.70;;;3.80;;
59016;SDS011;44800;55.600;38.134;2023-02-13T13:34:48;7.25;;;4.50;;
59016;SDS011;44800;55.600;38.134;2023-02-13T13:37:18;5.43;;;3.92;;
59016;SDS011;44800;55.600;38.134;2023-02-13T13:39:54;8.90;;;4.75;;
59016;SDS011;44800;55.600;38.134;2023-02-13T13:42:29;2.03;;;1.40;;
59016;SDS011;44800;55.600;38.134;2023-02-13T13:48:03;6.15;;;3.97;;
59016;SDS011;44800;55.600;38.134;2023-02-13T13:50:41;6.95;;;3.67;;
59016;SDS011;44800;55.600;38.134;2023-02-13T13:53:12;6.40;;;3.45;;
59016;SDS011;44800;55.600;38.134;2023-02-13T13:55:58;6.60;;;3.55;;
59016;SDS011;44800;55.600;38.134;2023-02-13T13:58:34;6.78;;;3.88;;
59016;SDS011;44800;55.600;38.134;2023-02-13T14:01:17;10.40;;;4.60;;
59016;SDS011;44800;55.600;38.134;2023-02-13T14:03:48;14.25;;;4.93;;
59016;SDS011;44800;55.600;38.134;2023-02-13T14:06:18;6.97;;;3.97;;
59016;SDS011;44800;55.600;38.134;2023-02-13T14:11:51;11.05;;;4.45;;
59016;SDS011;44800;55.600;38.134;2023-02-13T14:20:20;9.18;;;4.60;;
59016;SDS011;44800;55.600;38.134;2023-02-13T14:22:53;7.47;;;4.40;;
59016;SDS011;44800;55.600;38.134;2023-02-13T14:25:22;6.82;;;4.55;;
59016;SDS011;44800;55.600;38.134;2023-02-13T14:27:54;6.47;;;4.35;;
59016;SDS011;44800;55.600;38.134;2023-02-13T14:30:26;9.75;;;3.92;;
59016;SDS011;44800;55.600;38.134;2023-02-13T14:32:56;6.03;;;3.42;;
59016;SDS011;44800;55.600;38.134;2023-02-13T14:35:29;5.90;;;3.92;;
59016;SDS011;44800;55.600;38.134;2023-02-13T14:37:59;5.75;;;3.38;;
59016;SDS011;44800;55.600;38.134;2023-02-13T14:40:41;4.70;;;3.40;;
59016;SDS011;44800;55.600;38.134;2023-02-13T14:46:05;7.95;;;3.67;;
59016;SDS011;44800;55.600;38.134;2023-02-13T14:48:48;6.43;;;3.45;;
59016;SDS011;44800;55.600;38.134;2023-02-13T14:51:20;6.65;;;4.00;;
59016;SDS011;44800;55.600;38.134;2023-02-13T14:53:55;5.47;;;3.65;;
59016;SDS011;44800;55.600;38.134;2023-02-13T14:56:26;6.72;;;3.95;;
59016;SDS011;44800;55.600;38.134;2023-02-13T14:58:57;7.45;;;3.22;;
59016;SDS011;44800;55.600;38.134;2023-02-13T15:01:31;12.25;;;3.67;;
59016;SDS011;44800;55.600;38.134;2023-02-13T15:04:04;3.40;;;2.10;;
59016;SDS011;44800;55.600;38.134;2023-02-13T15:06:38;5.60;;;2.85;;
59016;SDS011;44800;55.600;38.134;2023-02-13T15:09:19;3.63;;;2.00;;
59016;SDS011;44800;55.600;38.134;2023-02-13T15:11:51;11.02;;;3.42;;
59016;SDS011;44800;55.600;38.134;2023-02-13T15:14:21;5.95;;;2.70;;
59016;SDS011;44800;55.600;38.134;2023-02-13T15:16:53;2.72;;;1.92;;
59016;SDS011;44800;55.600;38.134;2023-02-13T15:19:24;7.28;;;3.30;;
59016;SDS011;44800;55.600;38.134;2023-02-13T15:21:55;5.05;;;3.15;;
59016;SDS011;44800;55.600;38.134;2023-02-13T15:24:25;6.07;;;3.60;;
59016;SDS011;44800;55.600;38.134;2023-02-13T15:27:00;2.75;;;1.88;;
59016;SDS011;44800;55.600;38.134;2023-02-13T15:29:30;6.57;;;2.80;;
59016;SDS011;44800;55.600;38.134;2023-02-13T15:32:19;5.90;;;2.20;;
59016;SDS011;44800;55.600;38.134;2023-02-13T15:34:48;3.22;;;2.25;;